Terminal Aerodrome Forecast
Issued by NWS Shreveport, LA

Home | Current Version | Previous Version | Text Only | Print | Product List | Glossary On
Versions: 1 2 3 4 5 6 7 8 9 10 11 12 13 14 15 16 17 18
000
FTUS44 KSHV 221850 AAA
TAFTYR
TAF AMD
KTYR 221850Z 2219/2318 14006KT P6SM SCT040
     FM222000 12007KT P6SM BKN045
     FM230000 14006KT P6SM SCT050
     FM230200 15003KT P6SM SKC
     FM230900 13003KT P6SM FEW015 SCT035
     FM231100 14003KT 5SM BR SCT015 BKN025
     FM231400 12004KT P6SM BKN035=

USA.gov is the U.S. government's official web portal to all federal, state and local government web resources and services.